Time;durP1;ratioP1;P1;durP2;ratioP2;P2;SDS_P1;SDS_P2;PMS_P1;PMS_P2;Temp;Humidity;BMP_temperature;BMP_pressure;BME280_temperature;BME280_humidity;BME280_pressure;Samples;Min_cycle;Max_cycle;Signal;HPM_P1;HPM_P2
2021/12/22 00:02:46;;;;;;;8.30;5.00;;;;;;;-2.51;100.00;97503.97;10414203;28;20238;-74
2021/12/22 00:07:47;;;;;;;12.67;7.00;;;;;;;-2.53;100.00;97496.31;10413860;28;20192;-74
2021/12/22 00:12:48;;;;;;;14.20;7.07;;;;;;;-2.52;100.00;97492.00;10413631;28;20234;-74
2021/12/22 00:17:49;;;;;;;13.53;7.07;;;;;;;-2.61;100.00;97495.75;10413632;28;20732;-74
2021/12/22 00:22:49;;;;;;;12.00;7.53;;;;;;;-2.58;100.00;97498.19;10413464;28;20224;-75
2021/12/22 00:27:49;;;;;;;12.60;7.13;;;;;;;-2.66;100.00;97492.53;10412237;28;20236;-74
2021/12/22 00:32:52;;;;;;;14.90;7.53;;;;;;;-2.66;100.00;97509.63;10410929;28;20196;-74
2021/12/22 00:37:53;;;;;;;14.37;7.50;;;;;;;-2.70;100.00;97516.59;10412602;28;20280;-74
2021/12/22 00:42:53;;;;;;;12.90;7.07;;;;;;;-2.74;100.00;97517.59;10412323;28;20765;-75
2021/12/22 00:47:55;;;;;;;17.47;8.17;;;;;;;-2.71;100.00;97530.28;10412520;28;20200;-74
2021/12/22 00:52:55;;;;;;;18.40;8.90;;;;;;;-2.73;100.00;97524.38;10412312;28;20271;-74
2021/12/22 00:57:56;;;;;;;20.03;8.57;;;;;;;-2.75;100.00;97527.00;10412009;28;20185;-74
2021/12/22 01:02:56;;;;;;;22.97;11.37;;;;;;;-2.77;100.00;97525.38;10412068;28;20219;-74
2021/12/22 01:07:57;;;;;;;23.50;12.20;;;;;;;-2.82;100.00;97528.09;10411696;28;20196;-74
2021/12/22 01:13:00;;;;;;;27.43;13.07;;;;;;;-2.84;100.00;97529.91;10411637;28;20683;-74
2021/12/22 01:18:11;;;;;;;22.60;10.70;;;;;;;-2.90;100.00;97524.97;10411626;28;20247;-74
2021/12/22 01:23:13;;;;;;;25.87;11.37;;;;;;;-2.91;100.00;97531.84;10411759;28;20200;-74
2021/12/22 01:28:15;;;;;;;30.77;12.30;;;;;;;-2.83;100.00;97534.16;10410929;28;20211;-74
2021/12/22 01:33:17;;;;;;;21.93;12.20;;;;;;;-2.88;100.00;97528.31;10409987;28;20215;-74
2021/12/22 01:38:17;;;;;;;22.43;11.63;;;;;;;-2.90;100.00;97527.56;10409986;28;20192;-74
2021/12/22 01:43:17;;;;;;;25.50;12.80;;;;;;;-2.97;100.00;97532.06;10414379;28;20275;-74
2021/12/22 01:53:45;;;;;;;27.13;13.83;;;;;;;-2.99;100.00;97528.69;10418357;28;20574;-75
2021/12/22 01:58:49;;;;;;;32.00;13.67;;;;;;;-3.00;100.00;97542.41;10417412;28;20275;-74
2021/12/22 02:03:50;;;;;;;28.23;13.03;;;;;;;-3.02;100.00;97527.97;10416435;28;20193;-74
2021/12/22 02:08:52;;;;;;;30.07;14.30;;;;;;;-2.95;100.00;97530.28;10418576;28;20610;-74
2021/12/22 02:13:59;;;;;;;25.10;13.10;;;;;;;-3.12;100.00;97527.47;10418344;28;20200;-74
2021/12/22 02:19:01;;;;;;;27.10;14.23;;;;;;;-2.96;100.00;97513.22;10418290;28;20220;-74
2021/12/22 02:24:02;;;;;;;26.17;13.07;;;;;;;-3.00;100.00;97515.94;10416238;28;20785;-74
2021/12/22 02:29:06;;;;;;;30.10;13.73;;;;;;;-2.94;100.00;97513.16;10417572;28;20287;-74
2021/12/22 02:34:13;;;;;;;29.93;14.43;;;;;;;-3.19;100.00;97520.84;10416405;28;20196;-74
2021/12/22 02:39:14;;;;;;;27.53;13.27;;;;;;;-3.36;100.00;97519.69;10417048;28;20209;-74
2021/12/22 02:44:14;;;;;;;30.40;14.70;;;;;;;-3.48;100.00;97522.66;10417179;28;20567;-74
2021/12/22 02:49:14;;;;;;;30.57;14.90;;;;;;;-3.58;100.00;97519.56;10416763;28;20641;-74
2021/12/22 02:54:20;;;;;;;29.43;13.03;;;;;;;-3.47;100.00;97520.03;10415921;28;20527;-74
2021/12/22 02:59:50;;;;;;;30.17;13.33;;;;;;;-3.44;100.00;97527.63;10416666;28;20307;-74
2021/12/22 03:04:54;;;;;;;26.63;11.93;;;;;;;-3.77;100.00;97544.88;10414645;28;20197;-73
2021/12/22 03:10:03;;;;;;;28.43;13.30;;;;;;;-4.02;100.00;97526.91;10412925;28;20185;-73
2021/12/22 03:15:06;;;;;;;21.90;12.07;;;;;;;-4.12;100.00;97528.88;10416609;28;20192;-73
2021/12/22 03:20:11;;;;;;;29.17;14.20;;;;;;;-4.07;100.00;97527.03;10414498;28;20255;-73
2021/12/22 03:25:17;;;;;;;26.10;12.97;;;;;;;-3.88;100.00;97542.66;10415036;28;20274;-73
2021/12/22 03:30:21;;;;;;;29.47;13.97;;;;;;;-3.67;100.00;97538.59;10414909;28;20192;-73
2021/12/22 03:35:22;;;;;;;26.27;13.67;;;;;;;-3.80;100.00;97532.19;10414884;28;20196;-73
2021/12/22 03:40:23;;;;;;;30.17;12.93;;;;;;;-3.73;100.00;97531.13;10414867;28;20270;-73
2021/12/22 03:45:24;;;;;;;24.57;11.33;;;;;;;-4.02;100.00;97526.91;10414629;28;20659;-73
2021/12/22 03:50:24;;;;;;;22.27;10.47;;;;;;;-4.24;100.00;97516.44;10414167;28;20208;-72
2021/12/22 03:55:25;;;;;;;16.67;7.23;;;;;;;-4.18;100.00;97514.56;10414150;28;20191;-73
2021/12/22 04:00:25;;;;;;;21.93;8.37;;;;;;;-4.56;100.00;97513.97;10414393;28;20216;-73
2021/12/22 04:05:26;;;;;;;13.03;7.57;;;;;;;-4.84;100.00;97518.97;10407926;28;20204;-73
2021/12/22 04:10:26;;;;;;;10.10;5.90;;;;;;;-4.89;100.00;97525.94;10407499;28;20188;-73
2021/12/22 04:15:27;;;;;;;12.03;6.13;;;;;;;-5.04;100.00;97525.50;10406465;28;20257;-72
2021/12/22 04:20:29;;;;;;;16.30;7.17;;;;;;;-5.03;100.00;97522.03;10406745;28;20219;-74
2021/12/22 04:25:29;;;;;;;17.17;6.80;;;;;;;-5.11;100.00;97513.75;10405892;28;20740;-74
2021/12/22 04:30:32;;;;;;;9.50;5.33;;;;;;;-5.15;100.00;97513.88;10405938;28;20225;-74
2021/12/22 04:35:33;;;;;;;10.67;4.67;;;;;;;-5.27;100.00;97517.56;10405512;28;20202;-75
2021/12/22 04:40:34;;;;;;;8.57;4.23;;;;;;;-5.29;100.00;97517.59;10406232;28;20724;-75
2021/12/22 04:45:34;;;;;;;11.10;5.43;;;;;;;-5.45;100.00;97532.47;10405407;28;20203;-72
2021/12/22 04:50:35;;;;;;;11.57;5.00;;;;;;;-5.57;100.00;97520.03;10405405;28;20226;-74
2021/12/22 04:55:36;;;;;;;8.17;3.87;;;;;;;-5.60;100.00;97536.25;10405197;28;20195;-74
2021/12/22 05:00:38;;;;;;;9.37;4.07;;;;;;;-5.67;100.00;97526.22;10405429;28;20187;-75
2021/12/22 05:05:38;;;;;;;9.27;4.23;;;;;;;-5.66;100.00;97526.19;10410346;28;20202;-75
2021/12/22 05:10:39;;;;;;;15.03;4.63;;;;;;;-5.75;100.00;97534.88;10411512;28;20218;-73
2021/12/22 05:15:39;;;;;;;10.97;4.60;;;;;;;-5.85;100.00;97537.69;10411872;28;20191;-72
2021/12/22 05:20:39;;;;;;;9.43;5.27;;;;;;;-6.08;100.00;97539.06;10410578;28;20654;-74
2021/12/22 05:25:40;;;;;;;9.57;5.50;;;;;;;-6.07;100.00;97533.09;10411390;28;20591;-75
2021/12/22 05:30:40;;;;;;;7.37;4.43;;;;;;;-6.14;100.00;97529.84;10411694;28;20216;-73
2021/12/22 05:35:41;;;;;;;9.43;5.10;;;;;;;-6.17;100.00;97532.47;10409584;28;20277;-75
2021/12/22 05:40:41;;;;;;;6.73;4.57;;;;;;;-6.21;100.00;97541.06;10409809;28;20296;-75
2021/12/22 05:45:41;;;;;;;5.13;3.67;;;;;;;-6.21;100.00;97540.22;10410554;28;20280;-75
2021/12/22 05:50:49;;;;;;;10.07;4.27;;;;;;;-6.20;100.00;97536.78;10410671;28;20228;-75
2021/12/22 05:55:49;;;;;;;5.53;3.63;;;;;;;-6.35;100.00;97526.06;10410997;28;20192;-75
2021/12/22 06:00:50;;;;;;;9.47;4.67;;;;;;;-6.31;100.00;97529.34;10410052;28;20670;-75
2021/12/22 06:05:50;;;;;;;10.13;4.57;;;;;;;-6.47;100.00;97534.78;10410805;28;20187;-75
2021/12/22 06:10:51;;;;;;;5.43;3.90;;;;;;;-6.42;100.00;97531.31;10410106;28;20316;-75
2021/12/22 06:15:51;;;;;;;8.17;4.87;;;;;;;-6.61;100.00;97541.03;10410260;28;20344;-75
2021/12/22 06:20:51;;;;;;;5.80;3.30;;;;;;;-6.60;100.00;97547.81;10410241;28;20198;-75
2021/12/22 06:25:53;;;;;;;6.77;4.20;;;;;;;-6.62;100.00;97550.38;10409643;28;20232;-75
2021/12/22 06:30:53;;;;;;;7.23;4.23;;;;;;;-6.60;100.00;97550.34;10411548;28;20304;-75
2021/12/22 06:35:53;;;;;;;7.70;4.47;;;;;;;-6.84;100.00;97553.34;10417391;28;20197;-75
2021/12/22 06:40:54;;;;;;;7.93;4.03;;;;;;;-6.73;100.00;97548.03;10415615;28;20188;-75
2021/12/22 06:45:54;;;;;;;8.00;4.90;;;;;;;-6.84;100.00;97545.72;10410501;28;20188;-75
2021/12/22 06:50:55;;;;;;;12.17;4.90;;;;;;;-6.87;100.00;97553.41;10416673;28;20296;-75
2021/12/22 06:55:55;;;;;;;5.83;4.00;;;;;;;-6.82;100.00;97551.59;10416739;28;20656;-75
2021/12/22 07:00:55;;;;;;;7.90;4.93;;;;;;;-6.96;100.00;97545.94;10415338;28;20280;-75
2021/12/22 07:05:56;;;;;;;8.87;5.47;;;;;;;-6.97;100.00;97545.97;10413121;28;20208;-75
2021/12/22 07:10:56;;;;;;;3.37;2.80;;;;;;;-6.86;100.00;97547.44;10413536;28;20251;-75
2021/12/22 07:15:57;;;;;;;7.63;4.53;;;;;;;-6.83;100.00;97547.41;10414345;28;20188;-76
2021/12/22 07:20:59;;;;;;;11.43;4.97;;;;;;;-6.86;100.00;97556.78;10415336;28;20649;-75
2021/12/22 07:25:59;;;;;;;8.67;4.67;;;;;;;-6.89;100.00;97562.78;10415544;28;20710;-75
2021/12/22 07:30:59;;;;;;;10.53;5.30;;;;;;;-6.88;100.00;97555.97;10413163;28;20223;-75
2021/12/22 07:36:02;;;;;;;10.83;5.20;;;;;;;-6.77;100.00;97566.78;10415294;28;20260;-75
2021/12/22 07:41:04;;;;;;;7.63;4.77;;;;;;;-6.69;100.00;97557.31;10406105;28;20255;-75
2021/12/22 07:46:04;;;;;;;7.97;4.43;;;;;;;-6.60;100.00;97573.28;10412845;28;20193;-75
2021/12/22 07:51:05;;;;;;;7.20;4.43;;;;;;;-6.47;100.00;97565.38;10412109;28;20578;-75
2021/12/22 07:56:05;;;;;;;8.07;4.90;;;;;;;-6.33;100.00;97564.25;10412434;28;20220;-75
2021/12/22 08:01:06;;;;;;;10.10;5.23;;;;;;;-6.15;100.00;97561.31;10411258;28;20249;-75
2021/12/22 08:06:06;;;;;;;16.53;6.63;;;;;;;-5.83;100.00;97564.03;10413116;28;20182;-75
2021/12/22 08:11:07;;;;;;;15.70;6.43;;;;;;;-5.08;100.00;97571.59;10411206;28;20738;-75
2021/12/22 08:16:08;;;;;;;6.23;4.17;;;;;;;-4.39;100.00;97562.06;10410821;28;20580;-74
2021/12/22 08:21:08;;;;;;;9.30;5.67;;;;;;;-3.84;100.00;97559.63;10410775;28;20271;-72
2021/12/22 08:26:08;;;;;;;7.47;4.73;;;;;;;-3.55;100.00;97550.19;10409385;28;20224;-75
2021/12/22 08:31:09;;;;;;;7.67;4.23;;;;;;;-3.01;100.00;97552.72;10411221;28;20212;-72
2021/12/22 08:41:33;;;;;;;9.97;5.77;;;;;;;-2.62;100.00;97539.41;10409500;28;20278;-73
2021/12/22 08:46:35;;;;;;;8.70;5.30;;;;;;;-1.81;100.00;97532.97;10410140;28;20207;-74
2021/12/22 08:51:36;;;;;;;5.93;4.33;;;;;;;-1.91;100.00;97518.84;10407600;28;20598;-74
2021/12/22 08:56:36;;;;;;;7.20;5.00;;;;;;;-1.38;97.67;97512.44;10409059;28;20192;-74
2021/12/22 09:01:37;;;;;;;9.57;4.80;;;;;;;-1.72;97.53;97508.66;10409740;28;20207;-74
2021/12/22 09:06:37;;;;;;;15.37;5.10;;;;;;;-1.42;96.45;97504.03;10410255;28;20189;-74
2021/12/22 09:11:38;;;;;;;14.47;5.67;;;;;;;-1.32;93.24;97491.63;10409816;28;20250;-75
2021/12/22 09:16:39;;;;;;;9.80;5.10;;;;;;;-0.60;91.67;97480.00;10409532;28;20192;-74
2021/12/22 09:21:40;;;;;;;11.83;4.80;;;;;;;-0.46;90.05;97472.50;10409914;28;20180;-75
2021/12/22 09:26:40;;;;;;;9.97;5.40;;;;;;;-0.28;88.63;97463.09;10408580;28;20508;-76
2021/12/22 09:31:41;;;;;;;11.07;4.93;;;;;;;0.30;85.75;97446.63;10408723;28;20223;-75
2021/12/22 09:36:43;;;;;;;80.77;70.67;;;;;;;0.05;87.17;97461.59;10409923;28;20196;-75
2021/12/22 09:41:45;;;;;;;9.37;5.00;;;;;;;0.35;83.47;97426.63;10408878;28;20260;-75
2021/12/22 09:46:49;;;;;;;5.67;3.80;;;;;;;0.96;79.87;97382.31;10407668;28;20282;-75
2021/12/22 09:57:09;;;;;;;7.27;3.93;;;;;;;0.94;79.62;97390.16;10406801;28;20345;-75
2021/12/22 10:02:09;;;;;;;10.23;5.70;;;;;;;1.23;79.97;97400.69;10404046;28;20198;-75
2021/12/22 10:07:17;;;;;;;12.07;4.60;;;;;;;1.28;77.63;97365.13;10413214;28;20199;-74
2021/12/22 10:12:20;;;;;;;4.03;2.77;;;;;;;0.94;77.11;97356.63;10417757;28;20227;-74
2021/12/22 10:17:43;;;;;;;5.27;3.30;;;;;;;1.14;77.96;97376.19;10415226;28;20199;-75
2021/12/22 10:22:45;;;;;;;6.67;3.60;;;;;;;1.25;77.46;97349.81;10416410;28;20203;-74
2021/12/22 10:28:04;;;;;;;6.97;3.43;;;;;;;1.52;75.10;97333.75;10415428;28;20309;-74
2021/12/22 10:34:01;;;;;;;5.73;3.63;;;;;;;2.01;74.41;97312.06;10398084;28;20301;-74
2021/12/22 10:39:02;;;;;;;4.23;3.30;;;;;;;1.93;73.89;97315.91;10328257;28;20200;-74
2021/12/22 10:44:02;;;;;;;7.40;3.93;;;;;;;1.65;75.19;97342.47;10415678;28;20200;-74
2021/12/22 10:49:14;;;;;;;5.60;3.50;;;;;;;2.03;73.03;97298.13;10414101;28;20263;-74
2021/12/22 10:54:17;;;;;;;13.13;6.47;;;;;;;2.01;72.55;97288.81;10413673;28;20242;-74
2021/12/22 10:59:20;;;;;;;30.40;15.10;;;;;;;2.30;73.24;97320.72;10414084;28;20344;-74
2021/12/22 11:04:26;;;;;;;5.80;3.30;;;;;;;2.53;71.25;97283.16;10414586;28;20677;-74
2021/12/22 11:09:29;;;;;;;4.60;2.83;;;;;;;2.41;69.70;97245.91;10412754;28;20343;-74
2021/12/22 11:14:35;;;;;;;5.97;2.97;;;;;;;1.62;70.29;97254.81;10413755;28;20545;-74
2021/12/22 11:19:51;;;;;;;5.10;2.60;;;;;;;2.10;69.31;97246.94;10414510;28;20276;-74
2021/12/22 11:24:54;;;;;;;3.50;2.43;;;;;;;1.99;69.49;97254.47;10412480;28;20250;-75
2021/12/22 11:29:56;;;;;;;3.70;3.20;;;;;;;0.94;71.80;97273.25;10412436;28;20223;-74
2021/12/22 11:35:21;;;;;;;6.07;3.07;;;;;;;1.15;72.83;97303.03;10413321;28;20285;-74
2021/12/22 11:40:22;;;;;;;5.00;3.40;;;;;;;2.11;70.73;97264.06;10447883;28;20191;-74
2021/12/22 11:45:23;;;;;;;6.33;3.57;;;;;;;1.54;71.59;97270.75;10454079;28;20663;-74
2021/12/22 11:50:27;;;;;;;2.63;2.10;;;;;;;1.59;71.61;97278.25;10435706;28;20235;-74
2021/12/22 11:55:37;;;;;;;5.90;3.23;;;;;;;1.85;71.49;97257.84;10436424;28;20192;-74
2021/12/22 12:00:39;;;;;;;6.23;3.07;;;;;;;1.34;71.07;97242.66;10453202;28;20207;-74
2021/12/22 12:05:39;;;;;;;6.97;3.80;;;;;;;1.38;72.39;97281.13;10435370;28;20270;-74
2021/12/22 12:10:44;;;;;;;7.00;3.70;;;;;;;1.81;70.64;97252.03;10452152;28;20299;-74
2021/12/22 12:21:48;;;;;;;5.70;3.73;;;;;;;1.89;71.37;97264.50;10452164;28;20198;-74
2021/12/22 12:26:49;;;;;;;6.20;3.83;;;;;;;1.89;70.56;97249.00;10450935;28;20234;-75
2021/12/22 12:31:50;;;;;;;5.10;3.37;;;;;;;2.34;70.23;97238.63;10450180;28;20220;-74
2021/12/22 12:36:50;;;;;;;4.23;3.30;;;;;;;1.34;70.97;97253.81;10451866;28;20191;-74
2021/12/22 12:42:01;;;;;;;6.50;3.83;;;;;;;1.66;70.90;97256.31;10451061;28;20536;-74
2021/12/22 12:47:20;;;;;;;7.43;3.90;;;;;;;2.02;71.03;97270.63;10451382;28;20192;-74
2021/12/22 12:52:23;;;;;;;8.80;3.93;;;;;;;2.50;68.46;97206.56;10450808;28;20227;-74
2021/12/22 12:57:24;;;;;;;8.00;3.80;;;;;;;1.71;69.42;97220.72;10450820;28;20200;-74
2021/12/22 13:02:27;;;;;;;6.87;3.73;;;;;;;0.53;71.98;97253.91;10416495;28;20253;-74
2021/12/22 13:07:28;;;;;;;5.83;3.37;;;;;;;1.17;71.93;97254.75;10450712;28;20237;-74
2021/12/22 13:13:17;;;;;;;7.50;3.20;;;;;;;1.46;71.21;97248.91;10450448;28;20215;-74
2021/12/22 13:18:26;;;;;;;4.83;3.40;;;;;;;1.76;70.64;97247.13;10451739;28;20183;-74
2021/12/22 13:23:31;;;;;;;5.47;3.57;;;;;;;1.56;71.60;97260.34;10450510;28;20188;-74
2021/12/22 13:28:35;;;;;;;7.80;5.07;;;;;;;1.38;71.64;97252.72;10450855;28;20203;-74
2021/12/22 13:33:41;;;;;;;8.97;5.67;;;;;;;1.39;72.31;97267.31;10450173;28;20220;-73
2021/12/22 13:38:43;;;;;;;7.10;4.43;;;;;;;0.90;73.92;97285.44;10453477;28;20206;-73
2021/12/22 13:43:46;;;;;;;10.07;7.10;;;;;;;0.34;76.02;97321.88;10458075;28;20682;-74
2021/12/22 13:49:00;;;;;;;8.23;4.27;;;;;;;-0.21;77.35;97343.47;10458400;28;20210;-74
2021/12/22 13:54:05;;;;;;;6.13;4.37;;;;;;;-0.50;79.85;97383.47;10441941;28;20265;-75
2021/12/22 13:59:08;;;;;;;7.80;5.23;;;;;;;-0.16;79.53;97368.97;10457923;28;20671;-75
2021/12/22 14:04:12;;;;;;;9.37;5.83;;;;;;;-0.81;81.56;97387.44;10458256;28;20550;-75
2021/12/22 14:09:16;;;;;;;8.43;4.80;;;;;;;-0.66;82.55;97401.34;10458120;28;20259;-74
2021/12/22 14:14:23;;;;;;;10.13;4.50;;;;;;;-1.27;84.58;97402.34;10457863;28;20187;-75
2021/12/22 14:19:24;;;;;;;6.43;4.17;;;;;;;-1.41;85.59;97402.91;10456718;28;20194;-75
2021/12/22 14:24:33;;;;;;;12.83;5.13;;;;;;;-1.36;87.01;97389.84;10458011;28;20322;-74
2021/12/22 14:29:46;;;;;;;10.47;5.30;;;;;;;-1.69;88.07;97392.97;10457015;28;20227;-75
2021/12/22 14:35:00;;;;;;;9.20;5.30;;;;;;;-1.72;89.40;97385.38;10439143;28;20187;-75
2021/12/22 14:40:14;;;;;;;11.60;6.87;;;;;;;-1.94;90.35;97376.00;10439645;28;20196;-74
2021/12/22 14:45:17;;;;;;;17.20;8.47;;;;;;;-2.00;91.54;97373.69;10455648;28;20194;-75
2021/12/22 14:50:18;;;;;;;22.80;12.87;;;;;;;-2.24;92.86;97371.19;10455032;28;20236;-74
2021/12/22 14:55:36;;;;;;;33.83;17.20;;;;;;;-2.50;94.79;97382.47;10456042;28;20188;-74
2021/12/22 15:00:38;;;;;;;42.07;19.63;;;;;;;-2.57;95.95;97384.44;10456045;28;20180;-74
2021/12/22 15:05:38;;;;;;;41.87;20.23;;;;;;;-2.71;98.40;97391.81;10437863;28;20687;-74
2021/12/22 15:10:39;;;;;;;48.33;24.00;;;;;;;-2.91;100.00;97370.34;10455726;28;20208;-74
2021/12/22 15:15:39;;;;;;;100.33;43.90;;;;;;;-2.98;100.00;97368.88;10455768;28;20286;-73
2021/12/22 15:20:39;;;;;;;156.70;58.70;;;;;;;-3.27;100.00;97364.84;10454850;28;20191;-74
2021/12/22 15:25:41;;;;;;;99.17;41.27;;;;;;;-3.33;100.00;97365.88;10454913;28;20231;-74
2021/12/22 15:30:43;;;;;;;43.97;23.80;;;;;;;-3.57;100.00;97359.88;10454749;28;20223;-74
2021/12/22 15:35:44;;;;;;;40.83;20.47;;;;;;;-3.62;100.00;97357.47;10454328;28;20220;-74
2021/12/22 15:40:44;;;;;;;40.90;19.93;;;;;;;-3.61;100.00;97358.34;10454372;28;20601;-74
2021/12/22 15:45:44;;;;;;;39.83;19.43;;;;;;;-3.62;100.00;97357.47;10454301;28;20223;-73
2021/12/22 15:50:45;;;;;;;49.77;27.00;;;;;;;-3.67;100.00;97356.81;10436396;28;20234;-74
2021/12/22 15:55:46;;;;;;;35.97;19.90;;;;;;;-3.67;100.00;97351.69;10452893;28;20199;-74
2021/12/22 16:06:44;;;;;;;31.73;15.90;;;;;;;-3.82;100.00;97353.03;10453718;28;20200;-74
2021/12/22 16:11:44;;;;;;;42.13;21.50;;;;;;;-3.90;100.00;97346.53;10434938;28;20757;-74
2021/12/22 16:16:44;;;;;;;36.53;16.90;;;;;;;-3.93;100.00;97354.31;10435121;28;20891;-75
2021/12/22 16:21:45;;;;;;;38.93;20.53;;;;;;;-3.94;100.00;97348.34;10453567;28;20550;-74
2021/12/22 16:26:45;;;;;;;37.37;18.77;;;;;;;-4.07;100.00;97345.38;10450791;28;20600;-74
2021/12/22 16:31:46;;;;;;;34.30;16.80;;;;;;;-4.21;100.00;97340.72;10451817;28;20314;-76
2021/12/22 16:36:46;;;;;;;33.10;16.87;;;;;;;-4.52;100.00;97340.84;10452456;28;20196;-75
2021/12/22 16:41:47;;;;;;;28.27;13.73;;;;;;;-4.85;100.00;97338.44;10431411;28;20657;-75
2021/12/22 16:46:47;;;;;;;31.20;14.97;;;;;;;-5.13;100.00;97333.28;10448628;28;20760;-75
2021/12/22 16:51:47;;;;;;;36.87;17.00;;;;;;;-5.23;100.00;97322.53;10429207;28;20295;-76
2021/12/22 16:56:48;;;;;;;24.10;13.43;;;;;;;-5.29;100.00;97322.69;10437747;28;20752;-75
2021/12/22 17:01:48;;;;;;;25.30;13.73;;;;;;;-5.50;100.00;97313.94;10417957;28;20801;-75
2021/12/22 17:06:48;;;;;;;30.60;14.63;;;;;;;-5.62;100.00;97299.78;10444287;28;20615;-75
2021/12/22 17:11:49;;;;;;;34.77;17.17;;;;;;;-5.64;100.00;97302.38;10434388;28;20265;-75
2021/12/22 17:16:53;;;;;;;37.07;18.13;;;;;;;-5.68;100.00;97308.47;10433269;28;20182;-74
2021/12/22 17:21:53;;;;;;;35.53;18.10;;;;;;;-5.62;100.00;97294.66;10451789;28;20648;-73
2021/12/22 17:26:54;;;;;;;32.77;16.27;;;;;;;-5.78;100.00;97291.72;10446070;28;20235;-74
2021/12/22 17:31:56;;;;;;;39.97;17.97;;;;;;;-5.85;100.00;97287.66;10491633;28;20218;-74
2021/12/22 17:36:56;;;;;;;40.20;19.40;;;;;;;-5.95;100.00;97303.19;10492058;28;20284;-75
2021/12/22 17:41:57;;;;;;;39.67;19.50;;;;;;;-5.75;100.00;97299.28;10472767;28;20557;-74
2021/12/22 17:46:57;;;;;;;40.00;19.30;;;;;;;-5.91;100.00;97288.69;10474677;28;20195;-72
2021/12/22 17:51:58;;;;;;;41.97;20.07;;;;;;;-5.88;100.00;97288.59;10490641;28;20313;-73
2021/12/22 17:56:58;;;;;;;37.90;19.57;;;;;;;-6.06;100.00;97294.19;10473696;28;20200;-74
2021/12/22 18:01:59;;;;;;;29.73;15.67;;;;;;;-5.96;100.00;97282.84;10491450;28;20202;-74
2021/12/22 18:06:59;;;;;;;34.47;16.33;;;;;;;-6.12;100.00;97290.94;10490749;28;20225;-74
2021/12/22 18:11:59;;;;;;;37.50;17.67;;;;;;;-5.86;100.00;97297.03;10491852;28;20556;-75
2021/12/22 18:17:00;;;;;;;60.70;28.00;;;;;;;-5.84;100.00;97284.22;10491600;28;20248;-75
2021/12/22 18:22:00;;;;;;;64.47;26.53;;;;;;;-5.67;100.00;97271.00;10479102;28;20192;-74
2021/12/22 18:27:01;;;;;;;37.27;18.33;;;;;;;-5.77;100.00;97265.34;10453635;28;20227;-75
2021/12/22 18:32:02;;;;;;;42.13;20.23;;;;;;;-5.64;100.00;97260.72;10457336;28;20219;-75
2021/12/22 18:37:13;;;;;;;36.33;20.37;;;;;;;-5.29;100.00;97253.75;10480870;28;20658;-74
2021/12/22 18:42:14;;;;;;;40.47;18.63;;;;;;;-5.08;100.00;97237.78;10445927;28;20237;-75
2021/12/22 18:47:16;;;;;;;35.13;18.17;;;;;;;-4.93;100.00;97235.63;10430619;28;20223;-75
2021/12/22 18:52:16;;;;;;;24.33;12.00;;;;;;;-4.38;100.00;97215.94;10469302;28;20262;-74
2021/12/22 18:57:16;;;;;;;20.77;11.00;;;;;;;-3.84;100.00;97214.06;10475639;28;20187;-74
2021/12/22 19:02:17;;;;;;;25.83;10.53;;;;;;;-3.75;100.00;97205.22;10487195;28;20224;-74
2021/12/22 19:07:17;;;;;;;24.67;11.60;;;;;;;-3.61;100.00;97197.84;10471083;28;20204;-74
2021/12/22 19:12:18;;;;;;;18.07;9.60;;;;;;;-3.52;100.00;97183.03;10463437;28;20226;-74
2021/12/22 19:17:20;;;;;;;16.90;9.50;;;;;;;-3.44;100.00;97181.03;10462393;28;20184;-75
2021/12/22 19:22:21;;;;;;;23.30;10.07;;;;;;;-3.53;100.00;97177.06;10429821;28;20195;-75
2021/12/22 19:27:21;;;;;;;12.83;7.47;;;;;;;-3.55;100.00;97180.56;10469024;28;20231;-75
2021/12/22 19:32:22;;;;;;;22.37;10.97;;;;;;;-3.61;100.00;97177.38;10459924;28;20609;-75
2021/12/22 19:37:22;;;;;;;17.80;9.80;;;;;;;-3.52;100.00;97162.53;10453014;28;20674;-75
2021/12/22 19:42:22;;;;;;;25.83;10.33;;;;;;;-3.55;100.00;97160.09;10450831;28;20192;-74
2021/12/22 19:47:23;;;;;;;17.00;9.03;;;;;;;-3.43;100.00;97167.31;10459587;28;20256;-75
2021/12/22 19:52:23;;;;;;;15.03;6.67;;;;;;;-3.51;100.00;97157.34;10491550;28;20230;-75
2021/12/22 19:57:23;;;;;;;20.60;9.83;;;;;;;-3.44;100.00;97152.84;10491022;28;20195;-75
2021/12/22 20:02:24;;;;;;;20.20;10.07;;;;;;;-3.44;100.00;97152.84;10490256;28;20198;-75
2021/12/22 20:07:24;;;;;;;16.20;7.70;;;;;;;-3.39;100.00;97145.81;10489978;28;20559;-75
2021/12/22 20:12:24;;;;;;;16.83;9.83;;;;;;;-3.54;100.00;97141.28;10478908;28;20211;-76
2021/12/22 20:17:25;;;;;;;16.93;7.87;;;;;;;-3.45;100.00;97136.63;10447746;28;20192;-75
2021/12/22 20:22:25;;;;;;;18.47;9.60;;;;;;;-3.43;100.00;97134.84;10465798;28;20211;-76
2021/12/22 20:27:26;;;;;;;21.80;9.30;;;;;;;-3.38;100.00;97123.56;10464274;28;20269;-75
2021/12/22 20:32:28;;;;;;;18.27;10.07;;;;;;;-3.37;100.00;97131.19;10462823;28;20222;-76
2021/12/22 20:37:29;;;;;;;16.87;8.60;;;;;;;-3.43;100.00;97139.13;10473857;28;20191;-75
2021/12/22 20:42:29;;;;;;;18.93;6.60;;;;;;;-3.39;100.00;97130.44;10493626;28;20238;-75
2021/12/22 20:47:29;;;;;;;21.30;9.10;;;;;;;-3.40;100.00;97133.88;10457472;28;20184;-76
2021/12/22 20:52:30;;;;;;;17.73;10.00;;;;;;;-3.42;100.00;97139.06;10439212;28;20235;-75
2021/12/22 20:57:30;;;;;;;17.37;10.47;;;;;;;-3.51;100.00;97139.44;10464062;28;20184;-75
2021/12/22 21:02:31;;;;;;;21.63;10.73;;;;;;;-3.58;100.00;97138.84;10441079;28;20258;-76
2021/12/22 21:07:31;;;;;;;25.30;10.93;;;;;;;-3.45;100.00;97128.94;10478161;28;20187;-75
2021/12/22 21:12:36;;;;;;;10.73;7.03;;;;;;;-3.46;100.00;97124.72;10491804;28;20257;-75
2021/12/22 21:17:37;;;;;;;18.53;7.10;;;;;;;-3.43;100.00;97105.84;10492247;28;20209;-73
2021/12/22 21:22:39;;;;;;;18.13;8.87;;;;;;;-3.38;100.00;97090.28;10436688;28;20183;-75
2021/12/22 21:27:39;;;;;;;22.90;11.90;;;;;;;-3.42;100.00;97084.47;10442903;28;20263;-73
2021/12/22 21:32:39;;;;;;;17.20;9.10;;;;;;;-3.38;100.00;97080.03;10491933;28;20322;-75
2021/12/22 21:37:41;;;;;;;22.40;12.57;;;;;;;-3.48;100.00;97080.41;10477113;28;20652;-75
2021/12/22 21:42:41;;;;;;;16.60;8.50;;;;;;;-3.37;100.00;97067.16;10475793;28;20270;-75
2021/12/22 21:47:42;;;;;;;15.43;6.60;;;;;;;-3.34;100.00;97061.91;10493381;28;20257;-73
2021/12/22 21:52:42;;;;;;;17.40;8.67;;;;;;;-3.43;100.00;97063.16;10492507;28;20225;-75
2021/12/22 21:57:43;;;;;;;22.97;11.73;;;;;;;-3.47;100.00;97055.66;10492301;28;20190;-75
2021/12/22 22:02:45;;;;;;;15.50;8.63;;;;;;;-3.40;100.00;97036.56;10481896;28;21013;-75
2021/12/22 22:07:45;;;;;;;18.37;10.97;;;;;;;-3.42;100.00;97026.38;10499570;28;20269;-73
2021/12/22 22:12:46;;;;;;;18.47;9.33;;;;;;;-3.42;100.00;97028.13;10498817;28;20290;-75
2021/12/22 22:17:47;;;;;;;14.33;8.27;;;;;;;-3.41;100.00;97015.25;10468942;28;20188;-75
2021/12/22 22:22:48;;;;;;;18.00;10.93;;;;;;;-3.44;100.00;97022.22;10434691;28;20184;-75
2021/12/22 22:27:52;;;;;;;23.27;10.00;;;;;;;-3.43;100.00;97016.19;10469765;28;20263;-75
2021/12/22 22:32:53;;;;;;;14.13;8.47;;;;;;;-3.53;100.00;97007.25;10479259;28;20223;-75
2021/12/22 22:37:53;;;;;;;18.43;9.03;;;;;;;-3.56;100.00;97025.28;10458863;28;20188;-75
2021/12/22 22:42:54;;;;;;;17.67;9.37;;;;;;;-3.54;100.00;97008.94;10484106;28;20551;-75
2021/12/22 22:47:54;;;;;;;16.97;9.53;;;;;;;-3.56;100.00;96997.13;10487383;28;20632;-75
2021/12/22 22:52:55;;;;;;;21.93;10.50;;;;;;;-3.59;100.00;97000.63;10458408;28;20220;-75
2021/12/22 22:57:55;;;;;;;20.43;10.83;;;;;;;-3.64;100.00;96989.75;10459901;28;20184;-73
2021/12/22 23:02:56;;;;;;;15.73;8.07;;;;;;;-3.59;100.00;96985.28;10471248;28;20229;-73
2021/12/22 23:07:57;;;;;;;18.30;8.83;;;;;;;-3.47;100.00;96968.56;10468745;28;20729;-73
2021/12/22 23:12:57;;;;;;;15.57;7.63;;;;;;;-3.51;100.00;96961.91;10471803;28;20215;-73
2021/12/22 23:18:02;;;;;;;21.17;10.53;;;;;;;-3.59;100.00;96957.94;10459030;28;20187;-73
2021/12/22 23:23:04;;;;;;;15.63;8.20;;;;;;;-3.52;100.00;96942.31;10422788;28;20666;-73
2021/12/22 23:28:05;;;;;;;16.20;8.60;;;;;;;-3.53;100.00;96938.94;10452494;28;20223;-73